createdAt,value
2018-04-14T00:03:34.066Z,8.70
2018-04-14T00:08:35.041Z,8.66
2018-04-14T00:13:36.013Z,9.05
2018-04-14T00:18:36.969Z,9.08
2018-04-14T00:23:37.923Z,9.17
2018-04-14T00:28:38.912Z,9.12
2018-04-14T00:33:39.883Z,9.11
2018-04-14T00:38:40.857Z,9.32
2018-04-14T00:43:41.844Z,9.25
2018-04-14T00:48:42.811Z,9.05
2018-04-14T00:53:46.595Z,8.09
2018-04-14T00:58:47.589Z,8.65
2018-04-14T01:03:48.564Z,9.00
2018-04-14T01:08:49.510Z,9.07
2018-04-14T01:13:50.480Z,8.31
2018-04-14T01:18:51.467Z,8.58
2018-04-14T01:23:52.439Z,7.66
2018-04-14T01:28:53.430Z,7.53
2018-04-14T01:33:54.396Z,7.83
2018-04-14T01:38:55.339Z,8.18
2018-04-14T01:43:56.333Z,8.73
2018-04-14T01:48:57.348Z,8.14
2018-04-14T01:53:58.303Z,8.34
2018-04-14T01:58:59.279Z,8.75
2018-04-14T02:04:00.235Z,8.93
2018-04-14T02:09:01.187Z,8.81
2018-04-14T02:14:02.151Z,9.01
2018-04-14T02:19:03.126Z,9.11
2018-04-14T02:24:04.067Z,8.65
2018-04-14T02:29:05.043Z,9.19
2018-04-14T02:34:06.012Z,8.91
2018-04-14T02:39:06.994Z,8.36
2018-04-14T02:44:07.972Z,8.14
2018-04-14T02:49:08.929Z,8.27
2018-04-14T02:54:09.887Z,8.74
2018-04-14T02:59:10.953Z,9.12
2018-04-14T03:04:11.864Z,9.03
2018-04-14T03:09:12.816Z,8.53
2018-04-14T03:14:13.771Z,8.91
2018-04-14T03:19:14.763Z,9.14
2018-04-14T03:24:15.727Z,8.90
2018-04-14T03:29:16.729Z,8.65
2018-04-14T03:34:17.690Z,7.99
2018-04-14T03:39:18.644Z,7.96
2018-04-14T03:44:19.625Z,8.63
2018-04-14T03:49:20.604Z,8.35
2018-04-14T03:54:21.560Z,8.40
2018-04-14T03:59:22.564Z,7.92
2018-04-14T04:04:23.540Z,8.50
2018-04-14T04:09:24.513Z,8.35
2018-04-14T04:14:25.484Z,8.50
2018-04-14T04:19:38.710Z,8.02
2018-04-14T04:24:52.053Z,8.19
2018-04-14T04:29:53.066Z,8.51
2018-04-14T04:34:54.072Z,8.73
2018-04-14T04:39:55.055Z,8.00
2018-04-14T04:44:56.035Z,8.58
2018-04-14T04:49:57.025Z,8.75
2018-04-14T04:54:58.015Z,9.01
2018-04-14T04:59:59.000Z,8.91
2018-04-14T05:04:59.992Z,8.56
2018-04-14T05:10:00.981Z,8.92
2018-04-14T05:15:01.968Z,8.80
2018-04-14T05:20:02.943Z,9.12
2018-04-14T05:25:03.896Z,8.73
2018-04-14T05:30:04.893Z,8.91
2018-04-14T05:35:05.863Z,8.26
2018-04-14T05:40:06.836Z,8.58
2018-04-14T05:45:07.809Z,8.49
2018-04-14T05:50:08.813Z,8.30
2018-04-14T05:55:09.795Z,8.21
2018-04-14T06:00:10.787Z,8.05
2018-04-14T06:05:11.783Z,8.36
2018-04-14T06:10:12.767Z,8.29
2018-04-14T06:15:13.732Z,8.47
2018-04-14T06:20:14.719Z,8.34
2018-04-14T06:25:15.687Z,8.56
2018-04-14T06:30:16.707Z,8.54
2018-04-14T06:35:17.690Z,8.33
2018-04-14T06:40:18.700Z,8.81
2018-04-14T06:45:19.724Z,8.78
2018-04-14T06:50:21.373Z,9.06
2018-04-14T06:55:22.339Z,8.72
2018-04-14T07:00:23.314Z,8.63
2018-04-14T07:05:24.311Z,8.78
2018-04-14T07:10:25.313Z,9.00
2018-04-14T07:15:26.300Z,9.11
2018-04-14T07:20:27.285Z,9.38
2018-04-14T07:25:29.078Z,9.28
2018-04-14T07:30:30.113Z,8.89
2018-04-14T07:35:31.106Z,8.37
2018-04-14T07:40:32.079Z,8.19
2018-04-14T07:45:33.073Z,8.35
2018-04-14T07:50:34.032Z,8.64
2018-04-14T07:55:35.026Z,8.91
2018-04-14T08:00:36.052Z,8.46
2018-04-14T08:05:37.017Z,9.09
2018-04-14T08:10:37.989Z,8.82
2018-04-14T08:15:38.985Z,8.96
2018-04-14T08:20:39.973Z,9.24
2018-04-14T08:25:40.998Z,9.22
2018-04-14T08:30:42.068Z,9.06
2018-04-14T08:35:43.056Z,8.64
2018-04-14T08:40:44.033Z,8.61
2018-04-14T08:45:44.998Z,8.43
2018-04-14T08:50:45.972Z,8.49
2018-04-14T08:55:46.932Z,8.80
2018-04-14T09:00:47.923Z,8.61
2018-04-14T09:05:48.910Z,9.21
2018-04-14T09:10:49.868Z,8.97
2018-04-14T09:15:50.846Z,9.07
2018-04-14T09:20:51.851Z,8.65
2018-04-14T09:25:52.831Z,8.99
2018-04-14T09:30:53.836Z,8.91
2018-04-14T09:35:54.815Z,8.98
2018-04-14T09:40:55.796Z,8.85
2018-04-14T09:45:56.784Z,8.95
2018-04-14T09:50:57.772Z,9.15
2018-04-14T09:55:58.751Z,9.00
2018-04-14T10:01:00.786Z,9.05
2018-04-14T10:06:01.769Z,9.24
2018-04-14T10:11:02.768Z,9.49
2018-04-14T10:16:03.771Z,9.54
2018-04-14T10:21:04.769Z,9.30
2018-04-14T10:26:05.770Z,9.28
2018-04-14T10:31:06.774Z,9.14
2018-04-14T10:36:07.756Z,8.96
2018-04-14T10:41:08.732Z,8.97
2018-04-14T10:46:09.743Z,8.97
2018-04-14T10:51:10.732Z,8.89
2018-04-14T10:56:11.749Z,9.09
2018-04-14T11:01:12.742Z,9.19
2018-04-14T11:06:13.709Z,8.97
2018-04-14T11:11:14.701Z,9.16
2018-04-14T11:16:15.679Z,8.83
2018-04-14T11:21:16.650Z,8.93
2018-04-14T11:26:17.618Z,8.73
2018-04-14T11:31:18.713Z,8.78
2018-04-14T11:36:19.651Z,8.87
2018-04-14T11:41:20.648Z,9.05
2018-04-14T11:46:21.602Z,9.00
2018-04-14T11:51:22.594Z,8.99
2018-04-14T11:56:23.580Z,8.99
2018-04-14T12:01:24.580Z,9.03
2018-04-14T12:06:25.578Z,8.76
2018-04-14T12:11:26.564Z,8.45
2018-04-14T12:16:27.560Z,8.57
2018-04-14T12:21:28.581Z,8.66
2018-04-14T12:26:30.381Z,8.40
2018-04-14T12:31:31.486Z,8.51
2018-04-14T12:36:32.476Z,8.68
2018-04-14T12:41:33.493Z,8.51
2018-04-14T12:46:35.994Z,8.18
2018-04-14T12:51:37.076Z,8.19
2018-04-14T12:56:38.058Z,8.33
2018-04-14T13:01:39.058Z,8.53
2018-04-14T13:06:40.071Z,8.27
2018-04-14T13:11:41.088Z,8.38
2018-04-14T13:16:42.089Z,8.58
2018-04-14T13:21:43.079Z,8.74
2018-04-14T13:26:44.040Z,8.59
2018-04-14T13:31:45.093Z,8.72
2018-04-14T13:36:46.088Z,8.70
2018-04-14T13:41:47.076Z,8.50
2018-04-14T13:46:48.082Z,8.39
2018-04-14T13:51:49.089Z,8.15
2018-04-14T13:56:50.075Z,8.30
2018-04-14T14:01:51.077Z,8.53
2018-04-14T14:06:52.059Z,8.65
2018-04-14T14:11:53.057Z,8.61
2018-04-14T14:16:54.041Z,8.61
2018-04-14T14:21:55.052Z,8.81
2018-04-14T14:26:56.036Z,8.68
2018-04-14T14:31:57.070Z,8.44
2018-04-14T14:36:58.072Z,8.50
2018-04-14T14:41:59.066Z,8.42
2018-04-14T14:47:00.741Z,8.67
2018-04-14T14:52:01.757Z,8.33
2018-04-14T14:57:02.778Z,8.77
2018-04-14T15:02:03.771Z,8.59
2018-04-14T15:07:04.841Z,8.31
2018-04-14T15:12:05.844Z,8.23
2018-04-14T15:17:06.806Z,8.20
2018-04-14T15:22:07.774Z,8.02
2018-04-14T15:27:08.787Z,8.27
2018-04-14T15:32:09.809Z,8.40
2018-04-14T15:37:10.787Z,8.31
2018-04-14T15:42:11.769Z,8.51
2018-04-14T15:47:12.745Z,8.25
2018-04-14T15:52:13.716Z,8.39
2018-04-14T15:57:15.184Z,8.34
2018-04-14T16:02:16.185Z,8.46
2018-04-14T16:07:17.177Z,8.30
2018-04-14T16:12:18.173Z,8.54
2018-04-14T16:17:19.163Z,8.36
2018-04-14T16:22:20.163Z,8.21
2018-04-14T16:27:21.158Z,8.27
2018-04-14T16:32:22.167Z,8.32
2018-04-14T16:37:23.128Z,8.22
2018-04-14T16:42:24.107Z,8.45
2018-04-14T16:47:25.095Z,8.53
2018-04-14T16:52:26.089Z,8.55
2018-04-14T16:57:27.105Z,8.44
2018-04-14T17:02:28.171Z,8.19
2018-04-14T17:07:29.144Z,8.36
2018-04-14T17:12:30.135Z,8.33
2018-04-14T17:17:31.136Z,8.50
2018-04-14T17:22:32.152Z,8.71
2018-04-14T17:27:33.153Z,8.67
2018-04-14T17:32:34.225Z,8.50
2018-04-14T17:37:35.209Z,8.66
2018-04-14T17:42:36.189Z,8.45
2018-04-14T17:47:37.192Z,9.02
2018-04-14T17:52:38.182Z,8.77
2018-04-14T17:57:39.201Z,8.43
2018-04-14T18:02:40.237Z,8.65
2018-04-14T18:07:41.206Z,8.73
2018-04-14T18:12:42.203Z,8.75
2018-04-14T18:17:43.253Z,8.73
2018-04-14T18:22:44.293Z,8.83
2018-04-14T18:27:45.280Z,8.90
2018-04-14T18:32:46.294Z,8.73
2018-04-14T18:37:47.285Z,8.84
2018-04-14T18:42:48.270Z,8.89
2018-04-14T18:47:49.324Z,8.72
2018-04-14T18:52:50.340Z,8.89
2018-04-14T18:57:51.353Z,8.77
2018-04-14T19:02:52.397Z,8.79
2018-04-14T19:07:53.423Z,8.87
2018-04-14T19:12:54.446Z,8.80
2018-04-14T19:17:55.443Z,9.00
2018-04-14T19:22:56.452Z,8.76
2018-04-14T19:27:57.472Z,8.84
2018-04-14T19:32:58.526Z,8.82
2018-04-14T19:37:59.557Z,8.89
2018-04-14T19:43:00.575Z,8.64
2018-04-14T19:48:01.611Z,8.69
2018-04-14T19:53:02.695Z,8.74
2018-04-14T19:58:03.712Z,8.83
2018-04-14T20:03:04.777Z,8.92
2018-04-14T20:08:05.824Z,8.77
2018-04-14T20:13:06.861Z,8.94
2018-04-14T20:18:07.895Z,8.90
2018-04-14T20:23:08.905Z,8.86
2018-04-14T20:28:09.951Z,8.62
2018-04-14T20:33:11.018Z,8.92
2018-04-14T20:38:12.020Z,9.63
2018-04-14T20:43:13.066Z,9.90
2018-04-14T20:48:14.772Z,11.01
2018-04-14T20:53:15.888Z,9.96
2018-04-14T20:58:16.889Z,9.30
2018-04-14T21:03:17.953Z,8.80
2018-04-14T21:08:18.940Z,9.01
2018-04-14T21:13:19.937Z,8.79
2018-04-14T21:18:20.923Z,8.99
2018-04-14T21:23:21.935Z,8.53
2018-04-14T21:28:23.479Z,8.55
2018-04-14T21:33:24.478Z,8.46
2018-04-14T21:38:25.482Z,8.61
2018-04-14T21:43:26.438Z,8.69
2018-04-14T21:48:27.435Z,8.37
2018-04-14T21:53:28.448Z,8.33
2018-04-14T21:58:29.441Z,8.50
2018-04-14T22:03:30.448Z,8.72
2018-04-14T22:08:31.451Z,8.83
2018-04-14T22:13:32.452Z,8.85
2018-04-14T22:18:33.456Z,9.02
2018-04-14T22:23:34.419Z,8.71
2018-04-14T22:28:35.415Z,8.84
2018-04-14T22:33:36.456Z,8.52
2018-04-14T22:38:37.423Z,9.26
2018-04-14T22:43:38.433Z,8.81
2018-04-14T22:48:39.375Z,8.66
2018-04-14T22:53:40.372Z,8.60
2018-04-14T22:58:41.338Z,8.71
2018-04-14T23:03:42.322Z,8.92
2018-04-14T23:08:43.292Z,9.10
2018-04-14T23:13:44.307Z,8.50
2018-04-14T23:18:45.274Z,8.32
2018-04-14T23:23:46.249Z,8.23
2018-04-14T23:28:47.224Z,8.56
2018-04-14T23:33:48.208Z,8.21
2018-04-14T23:38:49.193Z,8.28
2018-04-14T23:43:50.165Z,8.15
2018-04-14T23:48:51.123Z,8.01
2018-04-14T23:53:52.066Z,8.01
2018-04-14T23:58:53.059Z,8.10
